sensor_id;sensor_type;location;lat;lon;timestamp;P1;durP1;ratioP1;P2;durP2;ratioP2
55015;SDS011;40919;43.236;21.590;2023-05-19T00:03:28;17.55;;;12.50;;
55015;SDS011;40919;43.236;21.590;2023-05-19T00:13:05;28.13;;;18.05;;
55015;SDS011;40919;43.236;21.590;2023-05-19T00:16:19;26.20;;;16.27;;
55015;SDS011;40919;43.236;21.590;2023-05-19T00:19:15;23.17;;;14.98;;
55015;SDS011;40919;43.236;21.590;2023-05-19T00:22:47;24.92;;;17.05;;
55015;SDS011;40919;43.236;21.590;2023-05-19T00:29:14;23.73;;;15.27;;
55015;SDS011;40919;43.236;21.590;2023-05-19T00:32:43;20.88;;;12.13;;
55015;SDS011;40919;43.236;21.590;2023-05-19T00:36:21;21.40;;;13.98;;
55015;SDS011;40919;43.236;21.590;2023-05-19T00:40:02;22.38;;;13.52;;
55015;SDS011;40919;43.236;21.590;2023-05-19T00:43:00;21.60;;;13.95;;
55015;SDS011;40919;43.236;21.590;2023-05-19T00:45:46;18.27;;;12.13;;
55015;SDS011;40919;43.236;21.590;2023-05-19T00:49:12;22.42;;;12.57;;
55015;SDS011;40919;43.236;21.590;2023-05-19T00:52:35;18.88;;;11.60;;
55015;SDS011;40919;43.236;21.590;2023-05-19T00:59:44;18.33;;;11.30;;
55015;SDS011;40919;43.236;21.590;2023-05-19T01:03:02;16.50;;;10.63;;
55015;SDS011;40919;43.236;21.590;2023-05-19T01:06:48;16.50;;;10.05;;
55015;SDS011;40919;43.236;21.590;2023-05-19T01:10:22;19.40;;;9.68;;
55015;SDS011;40919;43.236;21.590;2023-05-19T01:13:06;19.98;;;10.48;;
55015;SDS011;40919;43.236;21.590;2023-05-19T01:16:23;18.02;;;10.80;;
55015;SDS011;40919;43.236;21.590;2023-05-19T01:37:35;14.48;;;9.27;;
55015;SDS011;40919;43.236;21.590;2023-05-19T01:51:48;21.88;;;13.75;;
55015;SDS011;40919;43.236;21.590;2023-05-19T01:55:13;22.42;;;13.15;;
55015;SDS011;40919;43.236;21.590;2023-05-19T01:59:09;20.77;;;13.55;;
55015;SDS011;40919;43.236;21.590;2023-05-19T02:10:10;29.65;;;15.05;;
55015;SDS011;40919;43.236;21.590;2023-05-19T02:23:59;23.05;;;13.63;;
55015;SDS011;40919;43.236;21.590;2023-05-19T02:47:45;24.50;;;15.32;;
55015;SDS011;40919;43.236;21.590;2023-05-19T03:47:19;22.65;;;14.73;;
55015;SDS011;40919;43.236;21.590;2023-05-19T03:50:49;17.73;;;13.05;;
55015;SDS011;40919;43.236;21.590;2023-05-19T03:54:29;20.30;;;13.57;;
55015;SDS011;40919;43.236;21.590;2023-05-19T03:57:53;25.60;;;15.00;;
55015;SDS011;40919;43.236;21.590;2023-05-19T04:01:44;21.80;;;14.35;;
55015;SDS011;40919;43.236;21.590;2023-05-19T05:02:14;23.23;;;17.70;;
55015;SDS011;40919;43.236;21.590;2023-05-19T05:16:36;22.38;;;17.30;;
55015;SDS011;40919;43.236;21.590;2023-05-19T05:33:07;29.27;;;17.45;;
55015;SDS011;40919;43.236;21.590;2023-05-19T05:36:34;24.55;;;17.08;;
55015;SDS011;40919;43.236;21.590;2023-05-19T05:53:25;20.60;;;12.82;;
55015;SDS011;40919;43.236;21.590;2023-05-19T05:56:53;19.35;;;12.88;;
55015;SDS011;40919;43.236;21.590;2023-05-19T06:07:05;22.08;;;12.85;;
55015;SDS011;40919;43.236;21.590;2023-05-19T06:10:46;20.30;;;14.05;;
55015;SDS011;40919;43.236;21.590;2023-05-19T06:20:43;21.45;;;14.63;;
55015;SDS011;40919;43.236;21.590;2023-05-19T06:24:32;22.42;;;14.15;;
55015;SDS011;40919;43.236;21.590;2023-05-19T06:31:10;18.63;;;13.18;;
55015;SDS011;40919;43.236;21.590;2023-05-19T06:34:04;19.10;;;14.18;;
55015;SDS011;40919;43.236;21.590;2023-05-19T06:37:39;22.30;;;14.52;;
55015;SDS011;40919;43.236;21.590;2023-05-19T06:40:43;22.33;;;14.43;;
55015;SDS011;40919;43.236;21.590;2023-05-19T06:44:21;20.40;;;13.37;;
55015;SDS011;40919;43.236;21.590;2023-05-19T06:50:47;22.92;;;14.63;;
55015;SDS011;40919;43.236;21.590;2023-05-19T06:53:53;20.25;;;13.02;;
55015;SDS011;40919;43.236;21.590;2023-05-19T06:56:34;20.50;;;13.75;;
55015;SDS011;40919;43.236;21.590;2023-05-19T07:00:05;19.33;;;13.05;;
55015;SDS011;40919;43.236;21.590;2023-05-19T07:03:08;17.25;;;13.10;;
55015;SDS011;40919;43.236;21.590;2023-05-19T07:06:44;18.35;;;13.38;;
55015;SDS011;40919;43.236;21.590;2023-05-19T07:10:26;22.42;;;14.68;;
55015;SDS011;40919;43.236;21.590;2023-05-19T07:14:06;16.70;;;12.18;;
55015;SDS011;40919;43.236;21.590;2023-05-19T07:20:53;16.92;;;12.90;;
55015;SDS011;40919;43.236;21.590;2023-05-19T07:24:06;22.17;;;16.67;;
55015;SDS011;40919;43.236;21.590;2023-05-19T07:26:53;20.13;;;15.90;;
55015;SDS011;40919;43.236;21.590;2023-05-19T07:29:21;16.88;;;12.75;;
55015;SDS011;40919;43.236;21.590;2023-05-19T07:31:50;16.33;;;12.82;;
55015;SDS011;40919;43.236;21.590;2023-05-19T07:37:53;17.35;;;11.80;;
55015;SDS011;40919;43.236;21.590;2023-05-19T07:41:08;15.63;;;11.57;;
55015;SDS011;40919;43.236;21.590;2023-05-19T07:47:43;19.27;;;15.77;;
55015;SDS011;40919;43.236;21.590;2023-05-19T07:50:51;23.33;;;18.58;;
55015;SDS011;40919;43.236;21.590;2023-05-19T07:54:12;24.20;;;16.35;;
55015;SDS011;40919;43.236;21.590;2023-05-19T08:00:33;19.70;;;13.55;;
55015;SDS011;40919;43.236;21.590;2023-05-19T08:03:33;17.40;;;13.10;;
55015;SDS011;40919;43.236;21.590;2023-05-19T08:06:56;16.00;;;11.95;;
55015;SDS011;40919;43.236;21.590;2023-05-19T08:09:33;17.85;;;13.15;;
55015;SDS011;40919;43.236;21.590;2023-05-19T08:12:21;17.85;;;12.95;;
55015;SDS011;40919;43.236;21.590;2023-05-19T08:15:05;16.45;;;11.73;;
55015;SDS011;40919;43.236;21.590;2023-05-19T08:17:52;17.53;;;12.80;;
55015;SDS011;40919;43.236;21.590;2023-05-19T08:20:19;15.57;;;13.13;;
55015;SDS011;40919;43.236;21.590;2023-05-19T08:22:52;18.98;;;13.25;;
55015;SDS011;40919;43.236;21.590;2023-05-19T08:25:31;18.73;;;13.57;;
55015;SDS011;40919;43.236;21.590;2023-05-19T08:27:58;26.15;;;14.52;;
55015;SDS011;40919;43.236;21.590;2023-05-19T08:30:33;18.52;;;13.00;;
55015;SDS011;40919;43.236;21.590;2023-05-19T08:33:03;19.05;;;13.55;;
55015;SDS011;40919;43.236;21.590;2023-05-19T08:35:29;16.35;;;13.20;;
55015;SDS011;40919;43.236;21.590;2023-05-19T08:37:55;15.05;;;11.93;;
55015;SDS011;40919;43.236;21.590;2023-05-19T08:43:29;18.65;;;13.60;;
55015;SDS011;40919;43.236;21.590;2023-05-19T08:46:12;15.95;;;12.48;;
55015;SDS011;40919;43.236;21.590;2023-05-19T08:49:00;17.45;;;12.35;;
55015;SDS011;40919;43.236;21.590;2023-05-19T08:55:11;23.42;;;13.40;;
55015;SDS011;40919;43.236;21.590;2023-05-19T08:58:18;22.48;;;16.25;;
55015;SDS011;40919;43.236;21.590;2023-05-19T09:03:47;17.65;;;13.40;;
55015;SDS011;40919;43.236;21.590;2023-05-19T09:06:14;18.48;;;12.32;;
55015;SDS011;40919;43.236;21.590;2023-05-19T09:08:42;18.13;;;14.70;;
55015;SDS011;40919;43.236;21.590;2023-05-19T09:11:33;15.85;;;12.98;;
55015;SDS011;40919;43.236;21.590;2023-05-19T09:14:04;17.10;;;13.68;;
55015;SDS011;40919;43.236;21.590;2023-05-19T09:16:32;20.00;;;13.93;;
55015;SDS011;40919;43.236;21.590;2023-05-19T09:19:00;18.05;;;13.25;;
55015;SDS011;40919;43.236;21.590;2023-05-19T09:21:30;20.30;;;13.32;;
55015;SDS011;40919;43.236;21.590;2023-05-19T09:24:06;17.65;;;13.23;;
55015;SDS011;40919;43.236;21.590;2023-05-19T09:30:22;18.30;;;12.93;;
55015;SDS011;40919;43.236;21.590;2023-05-19T09:32:56;15.23;;;12.25;;
55015;SDS011;40919;43.236;21.590;2023-05-19T09:35:30;14.70;;;12.43;;
55015;SDS011;40919;43.236;21.590;2023-05-19T09:37:58;14.77;;;12.35;;
55015;SDS011;40919;43.236;21.590;2023-05-19T09:40:37;17.63;;;12.93;;
55015;SDS011;40919;43.236;21.590;2023-05-19T09:43:47;16.33;;;13.50;;
55015;SDS011;40919;43.236;21.590;2023-05-19T09:46:47;17.17;;;12.23;;
55015;SDS011;40919;43.236;21.590;2023-05-19T09:49:22;15.85;;;12.52;;
55015;SDS011;40919;43.236;21.590;2023-05-19T09:52:28;14.95;;;12.23;;
55015;SDS011;40919;43.236;21.590;2023-05-19T09:55:53;15.10;;;13.15;;
55015;SDS011;40919;43.236;21.590;2023-05-19T09:59:14;18.50;;;12.55;;
55015;SDS011;40919;43.236;21.590;2023-05-19T10:02:14;15.82;;;11.70;;
55015;SDS011;40919;43.236;21.590;2023-05-19T10:05:06;14.50;;;12.45;;
55015;SDS011;40919;43.236;21.590;2023-05-19T10:07:58;16.00;;;12.23;;
55015;SDS011;40919;43.236;21.590;2023-05-19T10:10:48;17.70;;;12.82;;
55015;SDS011;40919;43.236;21.590;2023-05-19T10:13:17;14.85;;;12.48;;
55015;SDS011;40919;43.236;21.590;2023-05-19T10:15:43;21.67;;;14.48;;
55015;SDS011;40919;43.236;21.590;2023-05-19T10:18:12;18.15;;;13.93;;
55015;SDS011;40919;43.236;21.590;2023-05-19T10:20:42;20.23;;;14.32;;
55015;SDS011;40919;43.236;21.590;2023-05-19T10:23:09;16.40;;;13.30;;
55015;SDS011;40919;43.236;21.590;2023-05-19T10:25:36;17.08;;;14.02;;
55015;SDS011;40919;43.236;21.590;2023-05-19T10:28:04;20.25;;;14.13;;
55015;SDS011;40919;43.236;21.590;2023-05-19T10:30:38;19.15;;;14.00;;
55015;SDS011;40919;43.236;21.590;2023-05-19T10:33:08;18.15;;;15.10;;
55015;SDS011;40919;43.236;21.590;2023-05-19T10:42:12;21.25;;;14.05;;
55015;SDS011;40919;43.236;21.590;2023-05-19T10:45:38;15.75;;;12.85;;
55015;SDS011;40919;43.236;21.590;2023-05-19T10:47:43;19.17;;;14.70;;
55015;SDS011;40919;43.236;21.590;2023-05-19T11:00:01;19.33;;;16.25;;
55015;SDS011;40919;43.236;21.590;2023-05-19T11:03:14;17.10;;;14.55;;
55015;SDS011;40919;43.236;21.590;2023-05-19T11:06:43;22.40;;;15.48;;
55015;SDS011;40919;43.236;21.590;2023-05-19T11:09:23;18.05;;;14.10;;
55015;SDS011;40919;43.236;21.590;2023-05-19T11:12:18;17.98;;;13.77;;
55015;SDS011;40919;43.236;21.590;2023-05-19T11:22:12;18.17;;;14.75;;
55015;SDS011;40919;43.236;21.590;2023-05-19T11:24:56;21.02;;;14.75;;
55015;SDS011;40919;43.236;21.590;2023-05-19T11:27:35;17.85;;;13.90;;
55015;SDS011;40919;43.236;21.590;2023-05-19T11:30:18;17.67;;;13.63;;
55015;SDS011;40919;43.236;21.590;2023-05-19T11:32:46;21.95;;;15.60;;
55015;SDS011;40919;43.236;21.590;2023-05-19T11:35:12;19.50;;;15.63;;
55015;SDS011;40919;43.236;21.590;2023-05-19T11:37:38;16.98;;;14.38;;
55015;SDS011;40919;43.236;21.590;2023-05-19T11:40:06;22.23;;;17.10;;
55015;SDS011;40919;43.236;21.590;2023-05-19T11:42:33;18.02;;;15.20;;
55015;SDS011;40919;43.236;21.590;2023-05-19T11:45:01;19.60;;;14.77;;
55015;SDS011;40919;43.236;21.590;2023-05-19T11:47:29;18.60;;;14.40;;
55015;SDS011;40919;43.236;21.590;2023-05-19T11:49:55;17.58;;;14.23;;
55015;SDS011;40919;43.236;21.590;2023-05-19T11:52:21;19.05;;;14.23;;
55015;SDS011;40919;43.236;21.590;2023-05-19T11:54:48;20.40;;;15.35;;
55015;SDS011;40919;43.236;21.590;2023-05-19T11:57:14;16.77;;;14.25;;
55015;SDS011;40919;43.236;21.590;2023-05-19T11:59:40;16.98;;;14.05;;
55015;SDS011;40919;43.236;21.590;2023-05-19T12:04:42;15.90;;;13.75;;
55015;SDS011;40919;43.236;21.590;2023-05-19T12:07:09;15.95;;;13.60;;
55015;SDS011;40919;43.236;21.590;2023-05-19T12:09:36;18.17;;;15.18;;
55015;SDS011;40919;43.236;21.590;2023-05-19T12:12:02;17.15;;;14.55;;
55015;SDS011;40919;43.236;21.590;2023-05-19T12:14:29;18.15;;;15.35;;
55015;SDS011;40919;43.236;21.590;2023-05-19T12:16:55;21.55;;;15.48;;
55015;SDS011;40919;43.236;21.590;2023-05-19T12:19:24;17.45;;;14.48;;
55015;SDS011;40919;43.236;21.590;2023-05-19T12:21:51;18.75;;;15.32;;
55015;SDS011;40919;43.236;21.590;2023-05-19T12:24:18;17.25;;;14.43;;
55015;SDS011;40919;43.236;21.590;2023-05-19T12:26:45;16.27;;;13.82;;
55015;SDS011;40919;43.236;21.590;2023-05-19T12:29:11;21.17;;;15.38;;
55015;SDS011;40919;43.236;21.590;2023-05-19T12:31:37;21.40;;;15.60;;
55015;SDS011;40919;43.236;21.590;2023-05-19T12:34:03;20.38;;;15.73;;
55015;SDS011;40919;43.236;21.590;2023-05-19T12:36:30;19.02;;;15.00;;
55015;SDS011;40919;43.236;21.590;2023-05-19T12:38:56;20.40;;;17.20;;
55015;SDS011;40919;43.236;21.590;2023-05-19T12:41:25;20.20;;;16.92;;
55015;SDS011;40919;43.236;21.590;2023-05-19T12:43:53;28.23;;;20.83;;
55015;SDS011;40919;43.236;21.590;2023-05-19T12:46:19;27.15;;;19.77;;
55015;SDS011;40919;43.236;21.590;2023-05-19T12:48:46;35.20;;;22.80;;
55015;SDS011;40919;43.236;21.590;2023-05-19T12:51:15;82.28;;;43.95;;
55015;SDS011;40919;43.236;21.590;2023-05-19T12:53:45;30.95;;;22.95;;
55015;SDS011;40919;43.236;21.590;2023-05-19T12:56:14;22.75;;;17.25;;
55015;SDS011;40919;43.236;21.590;2023-05-19T12:58:41;20.42;;;16.48;;
55015;SDS011;40919;43.236;21.590;2023-05-19T13:01:11;20.77;;;17.00;;
55015;SDS011;40919;43.236;21.590;2023-05-19T13:03:40;20.10;;;15.38;;
55015;SDS011;40919;43.236;21.590;2023-05-19T13:06:06;22.30;;;16.90;;
55015;SDS011;40919;43.236;21.590;2023-05-19T13:08:33;16.95;;;14.93;;
55015;SDS011;40919;43.236;21.590;2023-05-19T13:10:59;18.38;;;15.35;;
55015;SDS011;40919;43.236;21.590;2023-05-19T13:13:25;20.58;;;15.48;;
55015;SDS011;40919;43.236;21.590;2023-05-19T13:15:51;19.52;;;15.68;;
55015;SDS011;40919;43.236;21.590;2023-05-19T13:18:17;17.20;;;15.18;;
55015;SDS011;40919;43.236;21.590;2023-05-19T13:20:44;19.40;;;14.73;;
55015;SDS011;40919;43.236;21.590;2023-05-19T13:23:11;18.23;;;15.05;;
55015;SDS011;40919;43.236;21.590;2023-05-19T13:25:38;16.48;;;14.77;;
55015;SDS011;40919;43.236;21.590;2023-05-19T13:28:04;20.20;;;15.55;;
55015;SDS011;40919;43.236;21.590;2023-05-19T13:30:34;18.73;;;15.13;;
55015;SDS011;40919;43.236;21.590;2023-05-19T13:33:02;20.15;;;15.02;;
55015;SDS011;40919;43.236;21.590;2023-05-19T13:35:28;17.90;;;14.85;;
55015;SDS011;40919;43.236;21.590;2023-05-19T13:38:01;18.23;;;15.35;;
55015;SDS011;40919;43.236;21.590;2023-05-19T13:40:30;19.63;;;15.63;;
55015;SDS011;40919;43.236;21.590;2023-05-19T13:42:59;17.52;;;14.85;;
55015;SDS011;40919;43.236;21.590;2023-05-19T13:45:26;18.58;;;15.55;;
55015;SDS011;40919;43.236;21.590;2023-05-19T13:47:52;19.60;;;15.40;;
55015;SDS011;40919;43.236;21.590;2023-05-19T13:50:18;21.10;;;15.48;;
55015;SDS011;40919;43.236;21.590;2023-05-19T13:52:44;18.65;;;14.48;;
55015;SDS011;40919;43.236;21.590;2023-05-19T13:55:10;16.85;;;14.98;;
55015;SDS011;40919;43.236;21.590;2023-05-19T13:57:36;19.75;;;16.30;;
55015;SDS011;40919;43.236;21.590;2023-05-19T14:00:02;15.98;;;14.27;;
55015;SDS011;40919;43.236;21.590;2023-05-19T14:02:30;16.58;;;14.70;;
55015;SDS011;40919;43.236;21.590;2023-05-19T14:04:57;18.17;;;13.48;;
55015;SDS011;40919;43.236;21.590;2023-05-19T14:07:23;18.88;;;15.70;;
55015;SDS011;40919;43.236;21.590;2023-05-19T14:09:49;20.23;;;14.40;;
55015;SDS011;40919;43.236;21.590;2023-05-19T14:12:16;23.88;;;15.50;;
55015;SDS011;40919;43.236;21.590;2023-05-19T14:14:42;22.30;;;15.88;;
55015;SDS011;40919;43.236;21.590;2023-05-19T14:17:07;18.05;;;14.98;;
55015;SDS011;40919;43.236;21.590;2023-05-19T14:19:33;17.17;;;15.05;;
55015;SDS011;40919;43.236;21.590;2023-05-19T14:21:59;19.80;;;15.38;;
55015;SDS011;40919;43.236;21.590;2023-05-19T14:24:25;25.77;;;14.45;;
55015;SDS011;40919;43.236;21.590;2023-05-19T14:26:50;17.35;;;15.23;;
55015;SDS011;40919;43.236;21.590;2023-05-19T14:29:17;17.50;;;14.45;;
55015;SDS011;40919;43.236;21.590;2023-05-19T14:31:43;19.88;;;15.20;;
55015;SDS011;40919;43.236;21.590;2023-05-19T14:34:09;15.95;;;14.27;;
55015;SDS011;40919;43.236;21.590;2023-05-19T14:36:34;16.63;;;13.18;;
55015;SDS011;40919;43.236;21.590;2023-05-19T14:39:00;15.82;;;13.48;;
55015;SDS011;40919;43.236;21.590;2023-05-19T14:41:26;15.55;;;13.57;;
55015;SDS011;40919;43.236;21.590;2023-05-19T14:43:53;16.17;;;13.77;;
55015;SDS011;40919;43.236;21.590;2023-05-19T14:46:20;23.17;;;16.45;;
55015;SDS011;40919;43.236;21.590;2023-05-19T14:48:45;16.67;;;14.43;;
55015;SDS011;40919;43.236;21.590;2023-05-19T14:51:11;22.92;;;16.67;;
55015;SDS011;40919;43.236;21.590;2023-05-19T14:53:37;15.07;;;13.55;;
55015;SDS011;40919;43.236;21.590;2023-05-19T14:56:03;17.60;;;14.13;;
55015;SDS011;40919;43.236;21.590;2023-05-19T14:58:29;18.63;;;15.15;;
55015;SDS011;40919;43.236;21.590;2023-05-19T15:00:57;18.70;;;16.77;;
55015;SDS011;40919;43.236;21.590;2023-05-19T15:03:23;19.40;;;14.93;;
55015;SDS011;40919;43.236;21.590;2023-05-19T15:05:49;16.50;;;14.00;;
55015;SDS011;40919;43.236;21.590;2023-05-19T15:08:15;16.33;;;13.52;;
55015;SDS011;40919;43.236;21.590;2023-05-19T15:10:41;17.55;;;14.07;;
55015;SDS011;40919;43.236;21.590;2023-05-19T15:13:07;16.48;;;13.68;;
55015;SDS011;40919;43.236;21.590;2023-05-19T15:15:32;18.30;;;14.77;;
55015;SDS011;40919;43.236;21.590;2023-05-19T15:17:58;14.43;;;12.93;;
55015;SDS011;40919;43.236;21.590;2023-05-19T15:20:24;14.13;;;12.07;;
55015;SDS011;40919;43.236;21.590;2023-05-19T15:22:50;13.00;;;11.60;;
55015;SDS011;40919;43.236;21.590;2023-05-19T15:25:15;13.90;;;12.00;;
55015;SDS011;40919;43.236;21.590;2023-05-19T15:27:41;18.10;;;15.55;;
55015;SDS011;40919;43.236;21.590;2023-05-19T15:30:07;16.48;;;13.75;;
55015;SDS011;40919;43.236;21.590;2023-05-19T15:32:33;16.70;;;13.45;;
55015;SDS011;40919;43.236;21.590;2023-05-19T15:34:59;16.67;;;14.68;;
55015;SDS011;40919;43.236;21.590;2023-05-19T15:37:25;19.08;;;15.18;;
55015;SDS011;40919;43.236;21.590;2023-05-19T15:39:50;18.40;;;15.05;;
55015;SDS011;40919;43.236;21.590;2023-05-19T15:42:16;19.33;;;15.60;;
55015;SDS011;40919;43.236;21.590;2023-05-19T15:44:42;18.73;;;13.25;;
55015;SDS011;40919;43.236;21.590;2023-05-19T15:47:10;14.98;;;12.65;;
55015;SDS011;40919;43.236;21.590;2023-05-19T15:49:35;16.73;;;13.65;;
55015;SDS011;40919;43.236;21.590;2023-05-19T15:52:02;17.75;;;14.10;;
55015;SDS011;40919;43.236;21.590;2023-05-19T15:54:28;18.40;;;13.93;;
55015;SDS011;40919;43.236;21.590;2023-05-19T15:56:53;25.45;;;14.82;;
55015;SDS011;40919;43.236;21.590;2023-05-19T15:59:19;21.42;;;17.55;;
55015;SDS011;40919;43.236;21.590;2023-05-19T16:01:45;19.25;;;15.65;;
55015;SDS011;40919;43.236;21.590;2023-05-19T16:04:11;16.58;;;14.52;;
55015;SDS011;40919;43.236;21.590;2023-05-19T16:06:37;21.42;;;15.15;;
55015;SDS011;40919;43.236;21.590;2023-05-19T16:09:03;21.42;;;17.30;;
55015;SDS011;40919;43.236;21.590;2023-05-19T16:11:29;17.10;;;14.23;;
55015;SDS011;40919;43.236;21.590;2023-05-19T16:13:54;21.80;;;15.70;;
55015;SDS011;40919;43.236;21.590;2023-05-19T16:16:20;21.55;;;16.25;;
55015;SDS011;40919;43.236;21.590;2023-05-19T16:18:46;18.77;;;15.77;;
55015;SDS011;40919;43.236;21.590;2023-05-19T16:21:12;17.35;;;15.38;;
55015;SDS011;40919;43.236;21.590;2023-05-19T16:23:37;19.85;;;14.80;;
55015;SDS011;40919;43.236;21.590;2023-05-19T16:26:03;22.20;;;16.05;;
55015;SDS011;40919;43.236;21.590;2023-05-19T16:28:29;20.38;;;16.83;;
55015;SDS011;40919;43.236;21.590;2023-05-19T16:30:57;18.17;;;15.15;;
55015;SDS011;40919;43.236;21.590;2023-05-19T16:33:24;23.20;;;17.92;;
55015;SDS011;40919;43.236;21.590;2023-05-19T16:35:50;27.45;;;20.70;;
55015;SDS011;40919;43.236;21.590;2023-05-19T16:38:16;28.80;;;23.60;;
55015;SDS011;40919;43.236;21.590;2023-05-19T16:40:42;20.45;;;17.35;;
55015;SDS011;40919;43.236;21.590;2023-05-19T16:43:08;17.98;;;16.08;;
55015;SDS011;40919;43.236;21.590;2023-05-19T16:45:34;16.95;;;15.25;;
55015;SDS011;40919;43.236;21.590;2023-05-19T16:48:00;19.65;;;17.05;;
55015;SDS011;40919;43.236;21.590;2023-05-19T16:50:26;19.90;;;17.00;;
55015;SDS011;40919;43.236;21.590;2023-05-19T16:52:52;23.80;;;17.48;;
55015;SDS011;40919;43.236;21.590;2023-05-19T16:55:18;21.77;;;17.40;;
55015;SDS011;40919;43.236;21.590;2023-05-19T16:57:44;19.50;;;17.48;;
55015;SDS011;40919;43.236;21.590;2023-05-19T17:00:11;19.98;;;17.55;;
55015;SDS011;40919;43.236;21.590;2023-05-19T17:02:37;25.85;;;17.45;;
55015;SDS011;40919;43.236;21.590;2023-05-19T17:05:03;20.92;;;17.10;;
55015;SDS011;40919;43.236;21.590;2023-05-19T17:07:29;19.15;;;17.13;;
55015;SDS011;40919;43.236;21.590;2023-05-19T17:09:54;21.92;;;16.73;;
55015;SDS011;40919;43.236;21.590;2023-05-19T17:12:20;19.65;;;16.48;;
55015;SDS011;40919;43.236;21.590;2023-05-19T17:14:47;20.38;;;18.38;;
55015;SDS011;40919;43.236;21.590;2023-05-19T17:17:14;20.02;;;17.75;;
55015;SDS011;40919;43.236;21.590;2023-05-19T17:19:40;20.73;;;18.45;;
55015;SDS011;40919;43.236;21.590;2023-05-19T17:22:06;20.80;;;17.60;;
55015;SDS011;40919;43.236;21.590;2023-05-19T17:24:32;27.15;;;17.33;;
55015;SDS011;40919;43.236;21.590;2023-05-19T17:26:58;20.17;;;17.02;;
55015;SDS011;40919;43.236;21.590;2023-05-19T17:29:24;22.83;;;17.42;;
55015;SDS011;40919;43.236;21.590;2023-05-19T17:31:53;18.55;;;16.50;;
55015;SDS011;40919;43.236;21.590;2023-05-19T17:34:19;20.00;;;16.38;;
55015;SDS011;40919;43.236;21.590;2023-05-19T17:36:45;18.02;;;16.13;;
55015;SDS011;40919;43.236;21.590;2023-05-19T17:39:12;21.48;;;16.90;;
55015;SDS011;40919;43.236;21.590;2023-05-19T17:41:52;19.00;;;15.88;;
55015;SDS011;40919;43.236;21.590;2023-05-19T17:44:18;21.70;;;17.75;;
55015;SDS011;40919;43.236;21.590;2023-05-19T17:46:44;20.25;;;17.95;;
55015;SDS011;40919;43.236;21.590;2023-05-19T17:49:10;21.38;;;17.52;;
55015;SDS011;40919;43.236;21.590;2023-05-19T17:51:37;22.00;;;18.75;;
55015;SDS011;40919;43.236;21.590;2023-05-19T17:54:03;21.38;;;18.70;;
55015;SDS011;40919;43.236;21.590;2023-05-19T17:56:31;25.25;;;20.35;;
55015;SDS011;40919;43.236;21.590;2023-05-19T17:58:58;25.52;;;22.63;;
55015;SDS011;40919;43.236;21.590;2023-05-19T18:01:24;25.50;;;22.20;;
55015;SDS011;40919;43.236;21.590;2023-05-19T18:03:50;26.85;;;22.30;;
55015;SDS011;40919;43.236;21.590;2023-05-19T18:06:17;26.73;;;20.98;;
55015;SDS011;40919;43.236;21.590;2023-05-19T18:08:44;27.65;;;22.75;;
55015;SDS011;40919;43.236;21.590;2023-05-19T18:11:18;26.63;;;21.80;;
55015;SDS011;40919;43.236;21.590;2023-05-19T18:13:45;26.50;;;22.52;;
55015;SDS011;40919;43.236;21.590;2023-05-19T18:16:11;25.90;;;22.20;;
55015;SDS011;40919;43.236;21.590;2023-05-19T18:18:38;30.63;;;22.58;;
55015;SDS011;40919;43.236;21.590;2023-05-19T18:21:07;25.13;;;21.63;;
55015;SDS011;40919;43.236;21.590;2023-05-19T18:23:44;25.55;;;21.52;;
55015;SDS011;40919;43.236;21.590;2023-05-19T18:26:30;29.23;;;22.33;;
55015;SDS011;40919;43.236;21.590;2023-05-19T18:31:58;30.33;;;24.02;;
55015;SDS011;40919;43.236;21.590;2023-05-19T18:34:25;26.45;;;23.48;;
55015;SDS011;40919;43.236;21.590;2023-05-19T18:36:53;29.25;;;24.85;;
55015;SDS011;40919;43.236;21.590;2023-05-19T18:39:19;26.65;;;22.70;;
55015;SDS011;40919;43.236;21.590;2023-05-19T18:41:47;26.25;;;22.40;;
55015;SDS011;40919;43.236;21.590;2023-05-19T18:44:17;25.05;;;21.90;;
55015;SDS011;40919;43.236;21.590;2023-05-19T18:47:05;24.00;;;21.33;;
55015;SDS011;40919;43.236;21.590;2023-05-19T18:49:32;29.40;;;21.83;;
55015;SDS011;40919;43.236;21.590;2023-05-19T18:52:21;26.77;;;21.67;;
55015;SDS011;40919;43.236;21.590;2023-05-19T18:58:32;25.00;;;21.48;;
55015;SDS011;40919;43.236;21.590;2023-05-19T19:01:29;25.60;;;20.83;;
55015;SDS011;40919;43.236;21.590;2023-05-19T19:03:57;23.05;;;20.60;;
55015;SDS011;40919;43.236;21.590;2023-05-19T19:06:24;22.77;;;20.15;;
55015;SDS011;40919;43.236;21.590;2023-05-19T19:12:27;26.75;;;23.85;;
55015;SDS011;40919;43.236;21.590;2023-05-19T19:19:27;32.15;;;27.20;;
55015;SDS011;40919;43.236;21.590;2023-05-19T19:22:40;30.88;;;24.42;;
55015;SDS011;40919;43.236;21.590;2023-05-19T19:25:56;32.88;;;22.60;;
55015;SDS011;40919;43.236;21.590;2023-05-19T19:36:02;26.25;;;22.25;;
55015;SDS011;40919;43.236;21.590;2023-05-19T19:39:36;25.27;;;22.42;;
55015;SDS011;40919;43.236;21.590;2023-05-19T19:43:12;28.65;;;22.00;;
55015;SDS011;40919;43.236;21.590;2023-05-19T19:46:49;25.52;;;20.73;;
55015;SDS011;40919;43.236;21.590;2023-05-19T19:50:04;25.77;;;21.98;;
55015;SDS011;40919;43.236;21.590;2023-05-19T19:56:55;29.70;;;24.98;;
55015;SDS011;40919;43.236;21.590;2023-05-19T20:00:32;27.40;;;23.20;;
55015;SDS011;40919;43.236;21.590;2023-05-19T20:10:28;29.67;;;26.50;;
55015;SDS011;40919;43.236;21.590;2023-05-19T20:17:22;37.33;;;30.00;;
55015;SDS011;40919;43.236;21.590;2023-05-19T20:20:54;43.75;;;32.75;;
55015;SDS011;40919;43.236;21.590;2023-05-19T20:30:32;59.45;;;48.97;;
55015;SDS011;40919;43.236;21.590;2023-05-19T20:33:31;65.00;;;53.13;;
55015;SDS011;40919;43.236;21.590;2023-05-19T20:36:50;67.10;;;55.38;;
55015;SDS011;40919;43.236;21.590;2023-05-19T20:43:51;61.90;;;50.28;;
55015;SDS011;40919;43.236;21.590;2023-05-19T20:50:40;56.53;;;46.45;;
55015;SDS011;40919;43.236;21.590;2023-05-19T20:54:09;57.15;;;45.13;;
55015;SDS011;40919;43.236;21.590;2023-05-19T20:57:08;54.08;;;40.85;;
55015;SDS011;40919;43.236;21.590;2023-05-19T20:59:40;49.00;;;39.08;;
55015;SDS011;40919;43.236;21.590;2023-05-19T21:02:30;52.88;;;38.00;;
55015;SDS011;40919;43.236;21.590;2023-05-19T21:06:15;48.47;;;37.38;;
55015;SDS011;40919;43.236;21.590;2023-05-19T21:09:47;64.35;;;44.75;;
55015;SDS011;40919;43.236;21.590;2023-05-19T21:13:30;55.15;;;40.53;;
55015;SDS011;40919;43.236;21.590;2023-05-19T21:16:22;56.25;;;38.13;;
55015;SDS011;40919;43.236;21.590;2023-05-19T21:19:59;46.33;;;35.97;;
55015;SDS011;40919;43.236;21.590;2023-05-19T21:22:35;45.85;;;32.47;;
55015;SDS011;40919;43.236;21.590;2023-05-19T21:25:01;41.47;;;32.70;;
55015;SDS011;40919;43.236;21.590;2023-05-19T21:27:58;40.25;;;33.65;;
55015;SDS011;40919;43.236;21.590;2023-05-19T21:31:08;43.38;;;34.10;;
55015;SDS011;40919;43.236;21.590;2023-05-19T21:37:30;40.35;;;33.88;;
55015;SDS011;40919;43.236;21.590;2023-05-19T21:43:48;46.38;;;34.28;;
55015;SDS011;40919;43.236;21.590;2023-05-19T21:46:57;40.65;;;31.38;;